< < Back
Terminal Aerodrome Forecast


Current Version              Previous Versions:   1  2  3  4  5  6  7  8  9  

Terminal Aerodrome Forecast

435
FTUS44 KBMX 211100
TAFTCL
TAF
KTCL 211126Z 2112/2212 23004KT P6SM SCT250
     FM211500 26007KT P6SM SCT040
     FM220400 35006KT P6SM BKN035=

Latest METAR

690
SAUS70 KWBC 211600 RRC
MTRTCL
METAR KTCL 211553Z 24006KT 10SM CLR 28/18 A3007 RMK AO2 SLP180
T02780183


USA.gov is the U.S. government's official web portal to all federal, state and local government web resources and services.